sensor_id;sensor_type;location;lat;lon;timestamp;pressure;altitude;pressure_sealevel;temperature;humidity
76128;BME280;64873;50.102;14.434;2023-05-02T00:01:32;99151.25;;;13.74;61.96
76128;BME280;64873;50.102;14.434;2023-05-02T00:03:58;99155.81;;;13.74;62.24
76128;BME280;64873;50.102;14.434;2023-05-02T00:06:23;99151.38;;;13.68;62.43
76128;BME280;64873;50.102;14.434;2023-05-02T00:08:49;99141.59;;;13.62;62.59
76128;BME280;64873;50.102;14.434;2023-05-02T00:11:14;99141.94;;;13.65;62.67
76128;BME280;64873;50.102;14.434;2023-05-02T00:13:40;99153.97;;;13.63;62.83
76128;BME280;64873;50.102;14.434;2023-05-02T00:16:05;99148.09;;;13.66;62.45
76128;BME280;64873;50.102;14.434;2023-05-02T00:18:31;99147.84;;;13.50;63.10
76128;BME280;64873;50.102;14.434;2023-05-02T00:20:56;99162.41;;;13.54;63.35
76128;BME280;64873;50.102;14.434;2023-05-02T00:23:22;99164.50;;;13.52;63.09
76128;BME280;64873;50.102;14.434;2023-05-02T00:25:48;99166.53;;;13.45;63.88
76128;BME280;64873;50.102;14.434;2023-05-02T00:28:13;99167.78;;;13.54;63.52
76128;BME280;64873;50.102;14.434;2023-05-02T00:30:45;99171.41;;;13.48;63.54
76128;BME280;64873;50.102;14.434;2023-05-02T00:33:11;99157.19;;;13.36;64.04
76128;BME280;64873;50.102;14.434;2023-05-02T00:35:38;99164.28;;;13.42;64.16
76128;BME280;64873;50.102;14.434;2023-05-02T00:38:03;99153.56;;;13.42;64.16
76128;BME280;64873;50.102;14.434;2023-05-02T00:40:29;99153.09;;;13.45;64.01
76128;BME280;64873;50.102;14.434;2023-05-02T00:42:55;99160.09;;;13.46;64.10
76128;BME280;64873;50.102;14.434;2023-05-02T00:45:21;99155.28;;;13.48;63.85
76128;BME280;64873;50.102;14.434;2023-05-02T00:47:46;99163.22;;;13.55;63.68
76128;BME280;64873;50.102;14.434;2023-05-02T00:50:12;99176.19;;;13.46;63.83
76128;BME280;64873;50.102;14.434;2023-05-02T00:52:37;99159.88;;;13.36;64.30
76128;BME280;64873;50.102;14.434;2023-05-02T00:55:03;99158.88;;;13.14;64.84
76128;BME280;64873;50.102;14.434;2023-05-02T00:57:30;99176.00;;;13.13;65.14
76128;BME280;64873;50.102;14.434;2023-05-02T00:59:55;99176.13;;;13.06;65.71
76128;BME280;64873;50.102;14.434;2023-05-02T01:02:47;99168.31;;;13.04;65.52
76128;BME280;64873;50.102;14.434;2023-05-02T01:05:47;99174.63;;;12.98;66.04
76128;BME280;64873;50.102;14.434;2023-05-02T01:08:44;99177.88;;;13.00;65.88
76128;BME280;64873;50.102;14.434;2023-05-02T01:11:18;99181.28;;;12.96;66.08
76128;BME280;64873;50.102;14.434;2023-05-02T01:13:47;99177.06;;;12.76;66.21
76128;BME280;64873;50.102;14.434;2023-05-02T01:16:15;99183.63;;;12.92;66.34
76128;BME280;64873;50.102;14.434;2023-05-02T01:18:45;99189.22;;;12.79;66.46
76128;BME280;64873;50.102;14.434;2023-05-02T01:21:12;99196.09;;;12.75;66.92
76128;BME280;64873;50.102;14.434;2023-05-02T01:26:18;99204.59;;;12.84;67.03
76128;BME280;64873;50.102;14.434;2023-05-02T01:31:14;99200.97;;;12.66;67.60
76128;BME280;64873;50.102;14.434;2023-05-02T01:33:41;99193.75;;;12.55;67.80
76128;BME280;64873;50.102;14.434;2023-05-02T01:36:09;99186.63;;;12.49;68.06
76128;BME280;64873;50.102;14.434;2023-05-02T01:38:37;99200.88;;;12.61;67.85
76128;BME280;64873;50.102;14.434;2023-05-02T01:41:04;99201.97;;;12.42;68.36
76128;BME280;64873;50.102;14.434;2023-05-02T01:43:33;99197.69;;;12.41;68.47
76128;BME280;64873;50.102;14.434;2023-05-02T01:46:00;99205.59;;;12.47;68.40
76128;BME280;64873;50.102;14.434;2023-05-02T01:48:28;99212.69;;;12.42;68.60
76128;BME280;64873;50.102;14.434;2023-05-02T01:50:55;99200.34;;;12.41;68.23
76128;BME280;64873;50.102;14.434;2023-05-02T01:53:23;99214.25;;;12.49;68.25
76128;BME280;64873;50.102;14.434;2023-05-02T01:55:49;99216.94;;;12.61;67.85
76128;BME280;64873;50.102;14.434;2023-05-02T01:58:18;99222.41;;;12.54;68.20
76128;BME280;64873;50.102;14.434;2023-05-02T02:00:45;99217.97;;;12.48;68.36
76128;BME280;64873;50.102;14.434;2023-05-02T02:03:11;99212.84;;;12.59;67.84
76128;BME280;64873;50.102;14.434;2023-05-02T02:05:38;99212.25;;;12.45;68.01
76128;BME280;64873;50.102;14.434;2023-05-02T02:08:05;99212.81;;;12.35;68.23
76128;BME280;64873;50.102;14.434;2023-05-02T02:10:35;99219.47;;;12.44;67.98
76128;BME280;64873;50.102;14.434;2023-05-02T02:13:17;99220.28;;;12.33;68.17
76128;BME280;64873;50.102;14.434;2023-05-02T02:15:46;99228.69;;;12.48;67.99
76128;BME280;64873;50.102;14.434;2023-05-02T02:18:24;99233.09;;;12.43;68.22
76128;BME280;64873;50.102;14.434;2023-05-02T02:20:52;99230.63;;;12.30;68.62
76128;BME280;64873;50.102;14.434;2023-05-02T02:23:20;99234.44;;;12.22;69.13
76128;BME280;64873;50.102;14.434;2023-05-02T02:25:47;99233.63;;;12.21;69.03
76128;BME280;64873;50.102;14.434;2023-05-02T02:28:14;99231.69;;;12.40;68.77
76128;BME280;64873;50.102;14.434;2023-05-02T02:30:40;99236.22;;;12.28;68.96
76128;BME280;64873;50.102;14.434;2023-05-02T02:33:05;99229.66;;;12.24;68.79
76128;BME280;64873;50.102;14.434;2023-05-02T02:35:36;99222.78;;;12.16;69.01
76128;BME280;64873;50.102;14.434;2023-05-02T02:40:44;99233.47;;;12.05;69.44
76128;BME280;64873;50.102;14.434;2023-05-02T02:53:32;99262.34;;;12.03;69.29
76128;BME280;64873;50.102;14.434;2023-05-02T02:56:05;99262.97;;;12.16;69.16
76128;BME280;64873;50.102;14.434;2023-05-02T02:58:56;99266.31;;;12.12;69.02
76128;BME280;64873;50.102;14.434;2023-05-02T03:01:23;99245.56;;;12.07;68.80
76128;BME280;64873;50.102;14.434;2023-05-02T03:03:50;99257.22;;;12.13;69.04
76128;BME280;64873;50.102;14.434;2023-05-02T03:06:17;99277.75;;;12.19;68.61
76128;BME280;64873;50.102;14.434;2023-05-02T03:08:43;99268.56;;;12.15;68.79
76128;BME280;64873;50.102;14.434;2023-05-02T03:11:09;99267.69;;;12.03;69.14
76128;BME280;64873;50.102;14.434;2023-05-02T03:13:35;99273.41;;;12.06;69.24
76128;BME280;64873;50.102;14.434;2023-05-02T03:18:44;99255.59;;;12.12;68.44
76128;BME280;64873;50.102;14.434;2023-05-02T03:21:10;99271.97;;;12.22;68.25
76128;BME280;64873;50.102;14.434;2023-05-02T03:23:35;99269.31;;;12.04;68.95
76128;BME280;64873;50.102;14.434;2023-05-02T03:26:01;99287.66;;;12.18;68.32
76128;BME280;64873;50.102;14.434;2023-05-02T03:28:27;99278.94;;;11.93;68.73
76128;BME280;64873;50.102;14.434;2023-05-02T03:30:52;99290.13;;;12.20;68.27
76128;BME280;64873;50.102;14.434;2023-05-02T03:33:18;99282.09;;;12.01;68.38
76128;BME280;64873;50.102;14.434;2023-05-02T03:35:44;99294.19;;;11.92;69.07
76128;BME280;64873;50.102;14.434;2023-05-02T03:38:10;99288.50;;;12.00;68.49
76128;BME280;64873;50.102;14.434;2023-05-02T03:40:35;99303.69;;;11.88;69.24
76128;BME280;64873;50.102;14.434;2023-05-02T03:43:00;99298.34;;;11.88;69.37
76128;BME280;64873;50.102;14.434;2023-05-02T03:45:26;99295.06;;;12.05;68.75
76128;BME280;64873;50.102;14.434;2023-05-02T03:47:51;99289.66;;;11.93;68.71
76128;BME280;64873;50.102;14.434;2023-05-02T03:50:17;99302.44;;;11.91;69.02
76128;BME280;64873;50.102;14.434;2023-05-02T03:52:43;99288.53;;;11.82;69.28
76128;BME280;64873;50.102;14.434;2023-05-02T03:55:09;99315.69;;;11.86;69.40
76128;BME280;64873;50.102;14.434;2023-05-02T03:57:34;99315.66;;;12.04;69.03
76128;BME280;64873;50.102;14.434;2023-05-02T04:00:00;99317.22;;;12.12;68.45
76128;BME280;64873;50.102;14.434;2023-05-02T04:02:25;99309.72;;;12.02;68.73
76128;BME280;64873;50.102;14.434;2023-05-02T04:04:50;99302.38;;;11.97;68.80
76128;BME280;64873;50.102;14.434;2023-05-02T04:07:16;99321.25;;;12.03;68.93
76128;BME280;64873;50.102;14.434;2023-05-02T04:09:44;99313.44;;;12.01;68.90
76128;BME280;64873;50.102;14.434;2023-05-02T04:12:09;99312.03;;;11.98;68.70
76128;BME280;64873;50.102;14.434;2023-05-02T04:14:35;99320.44;;;12.02;68.84
76128;BME280;64873;50.102;14.434;2023-05-02T04:17:00;99315.38;;;11.94;68.76
76128;BME280;64873;50.102;14.434;2023-05-02T04:19:26;99331.97;;;12.03;68.83
76128;BME280;64873;50.102;14.434;2023-05-02T04:21:51;99324.97;;;12.01;68.89
76128;BME280;64873;50.102;14.434;2023-05-02T04:24:17;99318.88;;;11.94;69.13
76128;BME280;64873;50.102;14.434;2023-05-02T04:26:43;99334.09;;;12.12;68.52
76128;BME280;64873;50.102;14.434;2023-05-02T04:29:08;99341.25;;;12.18;68.44
76128;BME280;64873;50.102;14.434;2023-05-02T04:31:33;99341.38;;;12.23;68.30
76128;BME280;64873;50.102;14.434;2023-05-02T04:33:59;99337.16;;;12.16;68.39
76128;BME280;64873;50.102;14.434;2023-05-02T04:36:25;99346.06;;;12.28;68.17
76128;BME280;64873;50.102;14.434;2023-05-02T04:38:52;99351.53;;;12.21;68.19
76128;BME280;64873;50.102;14.434;2023-05-02T04:41:18;99343.84;;;12.25;67.77
76128;BME280;64873;50.102;14.434;2023-05-02T04:43:43;99356.50;;;12.18;68.53
76128;BME280;64873;50.102;14.434;2023-05-02T04:46:09;99360.97;;;12.06;68.62
76128;BME280;64873;50.102;14.434;2023-05-02T04:48:35;99361.56;;;12.08;68.81
76128;BME280;64873;50.102;14.434;2023-05-02T04:51:00;99376.31;;;12.17;68.51
76128;BME280;64873;50.102;14.434;2023-05-02T04:53:26;99378.81;;;12.12;68.52
76128;BME280;64873;50.102;14.434;2023-05-02T04:55:52;99377.78;;;12.13;68.56
76128;BME280;64873;50.102;14.434;2023-05-02T04:58:17;99370.94;;;12.17;68.35
76128;BME280;64873;50.102;14.434;2023-05-02T05:00:43;99391.78;;;12.15;68.27
76128;BME280;64873;50.102;14.434;2023-05-02T05:03:08;99386.56;;;12.01;68.84
76128;BME280;64873;50.102;14.434;2023-05-02T05:05:33;99401.00;;;12.19;68.57
76128;BME280;64873;50.102;14.434;2023-05-02T05:07:59;99376.81;;;12.07;68.61
76128;BME280;64873;50.102;14.434;2023-05-02T05:10:25;99383.59;;;12.10;69.15
76128;BME280;64873;50.102;14.434;2023-05-02T05:12:50;99389.38;;;12.07;68.81
76128;BME280;64873;50.102;14.434;2023-05-02T05:15:17;99405.03;;;12.28;68.35
76128;BME280;64873;50.102;14.434;2023-05-02T05:17:45;99397.22;;;12.26;68.16
76128;BME280;64873;50.102;14.434;2023-05-02T05:20:11;99394.38;;;12.40;68.16
76128;BME280;64873;50.102;14.434;2023-05-02T05:22:40;99398.19;;;12.32;68.39
76128;BME280;64873;50.102;14.434;2023-05-02T05:25:07;99404.63;;;12.24;68.46
76128;BME280;64873;50.102;14.434;2023-05-02T05:27:33;99411.13;;;12.35;68.06
76128;BME280;64873;50.102;14.434;2023-05-02T05:29:59;99399.66;;;12.28;68.36
76128;BME280;64873;50.102;14.434;2023-05-02T05:32:25;99410.81;;;12.43;67.82
76128;BME280;64873;50.102;14.434;2023-05-02T05:34:53;99418.09;;;12.36;67.89
76128;BME280;64873;50.102;14.434;2023-05-02T05:37:19;99416.09;;;12.50;67.37
76128;BME280;64873;50.102;14.434;2023-05-02T05:39:46;99421.81;;;12.53;67.21
76128;BME280;64873;50.102;14.434;2023-05-02T05:42:11;99416.47;;;12.35;67.70
76128;BME280;64873;50.102;14.434;2023-05-02T05:44:37;99418.41;;;12.46;67.56
76128;BME280;64873;50.102;14.434;2023-05-02T05:47:03;99405.44;;;12.62;66.76
76128;BME280;64873;50.102;14.434;2023-05-02T05:49:28;99415.34;;;12.61;66.93
76128;BME280;64873;50.102;14.434;2023-05-02T05:51:54;99413.69;;;12.60;66.94
76128;BME280;64873;50.102;14.434;2023-05-02T05:54:19;99421.03;;;12.65;66.97
76128;BME280;64873;50.102;14.434;2023-05-02T05:56:45;99437.72;;;12.85;66.06
76128;BME280;64873;50.102;14.434;2023-05-02T05:59:10;99436.78;;;12.91;66.14
76128;BME280;64873;50.102;14.434;2023-05-02T06:01:36;99439.06;;;12.76;66.39
76128;BME280;64873;50.102;14.434;2023-05-02T06:04:02;99442.41;;;12.71;66.71
76128;BME280;64873;50.102;14.434;2023-05-02T06:06:29;99440.25;;;12.80;66.42
76128;BME280;64873;50.102;14.434;2023-05-02T06:08:56;99443.22;;;12.72;66.61
76128;BME280;64873;50.102;14.434;2023-05-02T06:11:28;99450.44;;;13.01;65.63
76128;BME280;64873;50.102;14.434;2023-05-02T06:13:54;99455.50;;;13.10;65.59
76128;BME280;64873;50.102;14.434;2023-05-02T06:16:20;99451.88;;;13.04;65.73
76128;BME280;64873;50.102;14.434;2023-05-02T06:18:46;99452.59;;;12.81;66.46
76128;BME280;64873;50.102;14.434;2023-05-02T06:21:11;99450.00;;;13.04;65.82
76128;BME280;64873;50.102;14.434;2023-05-02T06:23:37;99463.06;;;13.01;66.35
76128;BME280;64873;50.102;14.434;2023-05-02T06:26:03;99464.19;;;12.93;66.84
76128;BME280;64873;50.102;14.434;2023-05-02T06:28:29;99454.50;;;12.92;66.91
76128;BME280;64873;50.102;14.434;2023-05-02T06:31:03;99460.97;;;12.73;68.49
76128;BME280;64873;50.102;14.434;2023-05-02T06:33:30;99473.16;;;12.87;68.52
76128;BME280;64873;50.102;14.434;2023-05-02T06:35:56;99466.34;;;12.73;68.75
76128;BME280;64873;50.102;14.434;2023-05-02T06:38:22;99477.06;;;12.73;68.29
76128;BME280;64873;50.102;14.434;2023-05-02T06:40:48;99484.34;;;12.84;68.25
76128;BME280;64873;50.102;14.434;2023-05-02T06:43:13;99468.47;;;13.13;66.89
76128;BME280;64873;50.102;14.434;2023-05-02T06:45:39;99483.50;;;13.02;67.55
76128;BME280;64873;50.102;14.434;2023-05-02T06:48:05;99482.78;;;13.06;67.58
76128;BME280;64873;50.102;14.434;2023-05-02T06:50:31;99470.69;;;13.16;67.36
76128;BME280;64873;50.102;14.434;2023-05-02T06:52:57;99479.19;;;13.31;65.99
76128;BME280;64873;50.102;14.434;2023-05-02T06:55:22;99487.28;;;13.54;65.39
76128;BME280;64873;50.102;14.434;2023-05-02T06:57:48;99500.25;;;13.69;65.36
76128;BME280;64873;50.102;14.434;2023-05-02T07:00:16;99500.97;;;13.88;64.28
76128;BME280;64873;50.102;14.434;2023-05-02T07:02:43;99494.56;;;14.01;64.05
76128;BME280;64873;50.102;14.434;2023-05-02T07:05:08;99494.34;;;14.14;64.04
76128;BME280;64873;50.102;14.434;2023-05-02T07:07:34;99507.28;;;14.29;63.75
76128;BME280;64873;50.102;14.434;2023-05-02T07:09:59;99499.47;;;14.27;63.15
76128;BME280;64873;50.102;14.434;2023-05-02T07:12:25;99505.28;;;14.24;63.39
76128;BME280;64873;50.102;14.434;2023-05-02T07:14:51;99513.38;;;14.24;62.81
76128;BME280;64873;50.102;14.434;2023-05-02T07:17:16;99501.66;;;14.42;62.67
76128;BME280;64873;50.102;14.434;2023-05-02T07:19:42;99512.22;;;14.55;62.58
76128;BME280;64873;50.102;14.434;2023-05-02T07:22:07;99509.38;;;14.62;61.83
76128;BME280;64873;50.102;14.434;2023-05-02T07:24:33;99514.22;;;14.48;61.66
76128;BME280;64873;50.102;14.434;2023-05-02T07:26:58;99505.38;;;14.76;60.13
76128;BME280;64873;50.102;14.434;2023-05-02T07:29:24;99524.34;;;14.70;59.73
76128;BME280;64873;50.102;14.434;2023-05-02T07:31:49;99514.75;;;14.74;59.49
76128;BME280;64873;50.102;14.434;2023-05-02T07:34:15;99515.09;;;14.42;59.97
76128;BME280;64873;50.102;14.434;2023-05-02T07:36:41;99510.84;;;14.81;57.93
76128;BME280;64873;50.102;14.434;2023-05-02T07:39:06;99520.06;;;14.97;57.99
76128;BME280;64873;50.102;14.434;2023-05-02T07:41:32;99514.78;;;15.02;58.14
76128;BME280;64873;50.102;14.434;2023-05-02T07:43:57;99514.38;;;15.10;57.60
76128;BME280;64873;50.102;14.434;2023-05-02T07:46:23;99520.94;;;14.74;58.77
76128;BME280;64873;50.102;14.434;2023-05-02T07:48:49;99518.22;;;14.86;58.61
76128;BME280;64873;50.102;14.434;2023-05-02T07:51:14;99520.25;;;15.07;57.63
76128;BME280;64873;50.102;14.434;2023-05-02T07:53:40;99494.88;;;15.32;56.81
76128;BME280;64873;50.102;14.434;2023-05-02T07:56:06;99527.94;;;15.15;57.16
76128;BME280;64873;50.102;14.434;2023-05-02T07:58:34;99515.34;;;15.33;56.64
76128;BME280;64873;50.102;14.434;2023-05-02T08:01:00;99528.19;;;15.59;56.17
76128;BME280;64873;50.102;14.434;2023-05-02T08:03:26;99532.06;;;15.35;57.27
76128;BME280;64873;50.102;14.434;2023-05-02T08:05:52;99548.41;;;15.45;56.95
76128;BME280;64873;50.102;14.434;2023-05-02T08:08:18;99542.38;;;15.83;56.08
76128;BME280;64873;50.102;14.434;2023-05-02T08:10:43;99541.78;;;15.64;56.41
76128;BME280;64873;50.102;14.434;2023-05-02T08:13:10;99544.75;;;16.13;55.25
76128;BME280;64873;50.102;14.434;2023-05-02T08:15:35;99546.38;;;16.14;55.02
76128;BME280;64873;50.102;14.434;2023-05-02T08:18:01;99534.78;;;15.80;56.26
76128;BME280;64873;50.102;14.434;2023-05-02T08:20:26;99554.53;;;15.86;56.05
76128;BME280;64873;50.102;14.434;2023-05-02T08:22:52;99560.41;;;16.16;55.58
76128;BME280;64873;50.102;14.434;2023-05-02T08:25:17;99550.84;;;15.75;56.51
76128;BME280;64873;50.102;14.434;2023-05-02T08:27:43;99551.84;;;15.86;56.21
76128;BME280;64873;50.102;14.434;2023-05-02T08:30:08;99555.38;;;16.03;55.74
76128;BME280;64873;50.102;14.434;2023-05-02T08:32:35;99558.16;;;16.08;53.79
76128;BME280;64873;50.102;14.434;2023-05-02T08:35:01;99562.22;;;15.94;52.53
76128;BME280;64873;50.102;14.434;2023-05-02T08:37:27;99563.38;;;15.98;51.81
76128;BME280;64873;50.102;14.434;2023-05-02T08:39:53;99565.66;;;16.06;51.65
76128;BME280;64873;50.102;14.434;2023-05-02T08:42:18;99571.38;;;16.26;50.12
76128;BME280;64873;50.102;14.434;2023-05-02T08:44:50;99579.94;;;16.23;50.41
76128;BME280;64873;50.102;14.434;2023-05-02T08:47:17;99571.28;;;16.21;50.67
76128;BME280;64873;50.102;14.434;2023-05-02T08:49:44;99581.16;;;16.33;51.06
76128;BME280;64873;50.102;14.434;2023-05-02T08:52:11;99581.22;;;16.71;50.67
76128;BME280;64873;50.102;14.434;2023-05-02T08:54:37;99579.22;;;16.11;51.47
76128;BME280;64873;50.102;14.434;2023-05-02T08:57:03;99582.50;;;16.13;51.62
76128;BME280;64873;50.102;14.434;2023-05-02T08:59:29;99578.00;;;16.02;51.47
76128;BME280;64873;50.102;14.434;2023-05-02T09:01:59;99584.94;;;16.32;51.17
76128;BME280;64873;50.102;14.434;2023-05-02T09:04:30;99578.09;;;16.07;51.92
76128;BME280;64873;50.102;14.434;2023-05-02T09:06:57;99577.97;;;16.36;51.41
76128;BME280;64873;50.102;14.434;2023-05-02T09:09:22;99593.09;;;16.37;51.90
76128;BME280;64873;50.102;14.434;2023-05-02T09:11:50;99599.22;;;16.49;51.30
76128;BME280;64873;50.102;14.434;2023-05-02T09:14:16;99587.34;;;16.67;50.67
76128;BME280;64873;50.102;14.434;2023-05-02T09:16:41;99597.38;;;17.10;50.03
76128;BME280;64873;50.102;14.434;2023-05-02T09:19:07;99594.31;;;17.01;49.88
76128;BME280;64873;50.102;14.434;2023-05-02T09:21:38;99598.00;;;17.17;49.39
76128;BME280;64873;50.102;14.434;2023-05-02T09:24:33;99596.97;;;17.23;48.69
76128;BME280;64873;50.102;14.434;2023-05-02T09:27:03;99579.66;;;17.19;48.70
76128;BME280;64873;50.102;14.434;2023-05-02T09:29:30;99608.78;;;17.17;48.35
76128;BME280;64873;50.102;14.434;2023-05-02T09:32:03;99618.22;;;16.93;49.31
76128;BME280;64873;50.102;14.434;2023-05-02T09:34:29;99614.91;;;17.08;49.24
76128;BME280;64873;50.102;14.434;2023-05-02T09:36:56;99614.44;;;16.94;48.88
76128;BME280;64873;50.102;14.434;2023-05-02T09:41:49;99632.34;;;17.22;48.89
76128;BME280;64873;50.102;14.434;2023-05-02T09:44:19;99633.34;;;17.16;48.66
76128;BME280;64873;50.102;14.434;2023-05-02T09:46:57;99624.97;;;17.12;48.08
76128;BME280;64873;50.102;14.434;2023-05-02T09:49:43;99628.34;;;17.24;48.19
76128;BME280;64873;50.102;14.434;2023-05-02T09:52:13;99627.44;;;17.41;48.04
76128;BME280;64873;50.102;14.434;2023-05-02T09:54:39;99630.59;;;17.32;48.10
76128;BME280;64873;50.102;14.434;2023-05-02T09:57:04;99627.41;;;17.36;47.79
76128;BME280;64873;50.102;14.434;2023-05-02T09:59:31;99638.22;;;17.36;47.80
76128;BME280;64873;50.102;14.434;2023-05-02T10:02:02;99639.56;;;17.60;47.19
76128;BME280;64873;50.102;14.434;2023-05-02T10:04:30;99639.56;;;17.60;47.09
76128;BME280;64873;50.102;14.434;2023-05-02T10:06:56;99644.22;;;17.43;47.09
76128;BME280;64873;50.102;14.434;2023-05-02T10:09:22;99644.59;;;17.29;46.31
76128;BME280;64873;50.102;14.434;2023-05-02T10:11:54;99650.25;;;17.50;46.05
76128;BME280;64873;50.102;14.434;2023-05-02T10:14:22;99636.28;;;17.58;45.39
76128;BME280;64873;50.102;14.434;2023-05-02T10:17:03;99641.25;;;17.66;45.05
76128;BME280;64873;50.102;14.434;2023-05-02T10:19:34;99637.78;;;17.71;46.00
76128;BME280;64873;50.102;14.434;2023-05-02T10:22:03;99646.84;;;17.81;45.99
76128;BME280;64873;50.102;14.434;2023-05-02T10:24:31;99645.72;;;17.77;46.08
76128;BME280;64873;50.102;14.434;2023-05-02T10:26:58;99643.31;;;18.08;45.58
76128;BME280;64873;50.102;14.434;2023-05-02T10:29:27;99643.06;;;18.42;44.86
76128;BME280;64873;50.102;14.434;2023-05-02T10:31:54;99641.81;;;18.54;44.70
76128;BME280;64873;50.102;14.434;2023-05-02T10:34:21;99652.44;;;18.34;45.14
76128;BME280;64873;50.102;14.434;2023-05-02T10:36:47;99650.81;;;18.65;44.95
76128;BME280;64873;50.102;14.434;2023-05-02T10:39:12;99643.97;;;17.93;45.96
76128;BME280;64873;50.102;14.434;2023-05-02T10:41:39;99652.50;;;18.07;45.96
76128;BME280;64873;50.102;14.434;2023-05-02T10:44:05;99657.44;;;18.15;45.85
76128;BME280;64873;50.102;14.434;2023-05-02T10:49:03;99642.66;;;17.96;45.82
76128;BME280;64873;50.102;14.434;2023-05-02T10:51:29;99649.53;;;18.08;46.08
76128;BME280;64873;50.102;14.434;2023-05-02T10:54:21;99660.19;;;18.20;46.60
76128;BME280;64873;50.102;14.434;2023-05-02T10:57:13;99662.72;;;18.32;46.29
76128;BME280;64873;50.102;14.434;2023-05-02T10:59:42;99652.63;;;18.22;46.08
76128;BME280;64873;50.102;14.434;2023-05-02T11:05:03;99657.66;;;18.08;46.13
76128;BME280;64873;50.102;14.434;2023-05-02T11:07:30;99652.13;;;17.98;45.70
76128;BME280;64873;50.102;14.434;2023-05-02T11:13:09;99642.19;;;18.04;45.77
76128;BME280;64873;50.102;14.434;2023-05-02T11:18:05;99635.75;;;18.10;45.87
76128;BME280;64873;50.102;14.434;2023-05-02T11:20:40;99646.59;;;18.79;45.01
76128;BME280;64873;50.102;14.434;2023-05-02T11:25:42;99640.78;;;18.65;44.45
76128;BME280;64873;50.102;14.434;2023-05-02T11:28:38;99651.03;;;18.96;44.75
76128;BME280;64873;50.102;14.434;2023-05-02T11:31:05;99652.06;;;18.89;43.85
76128;BME280;64873;50.102;14.434;2023-05-02T11:33:32;99655.09;;;18.61;44.06
76128;BME280;64873;50.102;14.434;2023-05-02T11:35:57;99655.78;;;18.78;43.70
76128;BME280;64873;50.102;14.434;2023-05-02T11:38:24;99648.19;;;18.75;44.02
76128;BME280;64873;50.102;14.434;2023-05-02T11:40:55;99654.50;;;18.22;45.25
76128;BME280;64873;50.102;14.434;2023-05-02T11:43:21;99658.69;;;18.02;45.40
76128;BME280;64873;50.102;14.434;2023-05-02T11:45:47;99643.25;;;18.30;44.64
76128;BME280;64873;50.102;14.434;2023-05-02T11:48:15;99653.47;;;17.96;45.16
76128;BME280;64873;50.102;14.434;2023-05-02T11:53:12;99645.13;;;18.29;44.00
76128;BME280;64873;50.102;14.434;2023-05-02T11:55:44;99651.84;;;18.59;43.91
76128;BME280;64873;50.102;14.434;2023-05-02T11:58:15;99647.44;;;18.16;43.87
76128;BME280;64873;50.102;14.434;2023-05-02T12:00:42;99657.00;;;18.28;43.58
76128;BME280;64873;50.102;14.434;2023-05-02T12:03:22;99670.19;;;18.20;43.17
76128;BME280;64873;50.102;14.434;2023-05-02T12:05:47;99656.84;;;18.08;43.60
76128;BME280;64873;50.102;14.434;2023-05-02T12:08:21;99665.81;;;17.87;43.96
76128;BME280;64873;50.102;14.434;2023-05-02T12:10:48;99660.91;;;18.10;43.82
76128;BME280;64873;50.102;14.434;2023-05-02T12:13:16;99666.63;;;18.14;43.54
76128;BME280;64873;50.102;14.434;2023-05-02T12:15:41;99669.75;;;18.33;43.28
76128;BME280;64873;50.102;14.434;2023-05-02T12:18:07;99653.66;;;18.16;43.08
76128;BME280;64873;50.102;14.434;2023-05-02T12:20:33;99667.44;;;17.88;43.43
76128;BME280;64873;50.102;14.434;2023-05-02T12:22:59;99667.44;;;17.88;43.61
76128;BME280;64873;50.102;14.434;2023-05-02T12:25:24;99660.94;;;17.83;44.14
76128;BME280;64873;50.102;14.434;2023-05-02T12:27:59;99667.47;;;17.44;45.15
76128;BME280;64873;50.102;14.434;2023-05-02T12:30:26;99664.25;;;17.47;45.41
76128;BME280;64873;50.102;14.434;2023-05-02T12:32:57;99681.59;;;17.51;44.93
76128;BME280;64873;50.102;14.434;2023-05-02T12:35:29;99668.28;;;17.44;45.17
76128;BME280;64873;50.102;14.434;2023-05-02T12:38:07;99683.75;;;17.49;45.02
76128;BME280;64873;50.102;14.434;2023-05-02T12:40:33;99675.53;;;17.82;44.22
76128;BME280;64873;50.102;14.434;2023-05-02T12:43:00;99672.28;;;17.85;43.91
76128;BME280;64873;50.102;14.434;2023-05-02T12:45:32;99671.97;;;17.82;44.06
76128;BME280;64873;50.102;14.434;2023-05-02T12:48:17;99683.63;;;17.82;44.21
76128;BME280;64873;50.102;14.434;2023-05-02T12:50:43;99682.66;;;18.21;43.61
76128;BME280;64873;50.102;14.434;2023-05-02T12:53:09;99679.78;;;17.78;43.97
76128;BME280;64873;50.102;14.434;2023-05-02T12:55:35;99689.06;;;17.88;44.01
76128;BME280;64873;50.102;14.434;2023-05-02T12:58:05;99679.09;;;17.66;44.24
76128;BME280;64873;50.102;14.434;2023-05-02T13:00:34;99685.56;;;17.65;44.25
76128;BME280;64873;50.102;14.434;2023-05-02T13:03:00;99687.69;;;17.63;44.18
76128;BME280;64873;50.102;14.434;2023-05-02T13:05:26;99700.47;;;17.90;43.91
76128;BME280;64873;50.102;14.434;2023-05-02T13:07:51;99695.00;;;17.84;44.45
76128;BME280;64873;50.102;14.434;2023-05-02T13:10:17;99700.34;;;17.79;45.07
76128;BME280;64873;50.102;14.434;2023-05-02T13:12:44;99707.56;;;17.52;46.51
76128;BME280;64873;50.102;14.434;2023-05-02T13:15:11;99698.97;;;17.55;46.70
76128;BME280;64873;50.102;14.434;2023-05-02T13:17:37;99709.63;;;17.45;47.07
76128;BME280;64873;50.102;14.434;2023-05-02T13:20:25;99710.84;;;17.54;46.71
76128;BME280;64873;50.102;14.434;2023-05-02T13:22:55;99713.66;;;17.86;46.03
76128;BME280;64873;50.102;14.434;2023-05-02T13:25:22;99700.63;;;17.78;45.67
76128;BME280;64873;50.102;14.434;2023-05-02T13:27:47;99696.44;;;17.48;46.24
76128;BME280;64873;50.102;14.434;2023-05-02T13:30:12;99710.56;;;17.72;45.83
76128;BME280;64873;50.102;14.434;2023-05-02T13:32:38;99705.09;;;17.50;46.19